createdAt,value
2022-11-24T00:02:31.532Z,98222.03
2022-11-24T00:08:35.803Z,98215.22
2022-11-24T00:14:37.791Z,98221.53
2022-11-24T00:21:09.777Z,98232.56
2022-11-24T00:27:15.012Z,98250.19
2022-11-24T00:33:17.055Z,98241.25
2022-11-24T00:39:21.995Z,98251.06
2022-11-24T00:45:24.000Z,98249.22
2022-11-24T00:51:29.790Z,98254.25
2022-11-24T00:57:34.383Z,98260.41
2022-11-24T01:03:37.203Z,98257.97
2022-11-24T01:09:39.350Z,98275.31
2022-11-24T01:15:41.434Z,98280.81
2022-11-24T01:21:45.890Z,98274.06
2022-11-24T01:27:47.928Z,98286.22
2022-11-24T01:33:50.319Z,98284.47
2022-11-24T01:39:52.326Z,98286.75
2022-11-24T01:45:55.664Z,98295.81
2022-11-24T01:52:53.326Z,98303.31
2022-11-24T01:59:05.123Z,98302.16
2022-11-24T02:05:41.751Z,98312.03
2022-11-24T02:11:44.665Z,98313.53
2022-11-24T02:17:47.065Z,98311.91
2022-11-24T02:24:10.876Z,98306.72
2022-11-24T02:30:15.877Z,98313.38
2022-11-24T02:36:17.983Z,98323.22
2022-11-24T02:42:20.283Z,98321.38
2022-11-24T02:48:22.464Z,98333.22
2022-11-24T02:54:24.532Z,98335.16
2022-11-24T03:00:26.569Z,98345.53
2022-11-24T03:06:28.653Z,98339.06
2022-11-24T03:12:33.769Z,98339.28
2022-11-24T03:18:35.788Z,98349.81
2022-11-24T03:24:38.337Z,98352.25
2022-11-24T03:30:49.183Z,98363.38
2022-11-24T03:36:51.239Z,98372.75
2022-11-24T03:42:53.264Z,98370.19
2022-11-24T03:48:58.094Z,98373.19
2022-11-24T03:55:00.102Z,98361.06
2022-11-24T04:01:02.185Z,98380.31
2022-11-24T04:07:04.443Z,98382.72
2022-11-24T04:13:16.967Z,98390.75
2022-11-24T04:19:19.191Z,98400.19
2022-11-24T04:25:21.127Z,98405.13
2022-11-24T04:31:23.159Z,98403.50
2022-11-24T04:37:28.141Z,98402.81
2022-11-24T04:43:34.165Z,98411.53
2022-11-24T04:49:42.524Z,98408.72
2022-11-24T04:55:44.475Z,98418.91
2022-11-24T05:01:47.265Z,98427.16
2022-11-24T05:07:49.283Z,98428.63
2022-11-24T05:13:53.716Z,98429.19
2022-11-24T05:19:55.661Z,98436.06
2022-11-24T05:26:02.784Z,98456.00
2022-11-24T05:32:05.123Z,98452.84
2022-11-24T05:38:08.235Z,98464.78
2022-11-24T05:44:10.268Z,98472.34
2022-11-24T05:50:21.162Z,98470.41
2022-11-24T05:56:23.480Z,98471.78
2022-11-24T06:02:25.986Z,98476.28
2022-11-24T06:08:35.105Z,98491.31
2022-11-24T06:14:37.729Z,98480.75
2022-11-24T06:20:39.636Z,98486.44
2022-11-24T06:26:42.213Z,98490.13
2022-11-24T06:32:49.980Z,98499.06
2022-11-24T06:45:09.584Z,98506.44
2022-11-24T06:51:15.868Z,98525.03
2022-11-24T06:57:17.761Z,98524.66
2022-11-24T07:03:20.633Z,98522.56
2022-11-24T07:09:25.694Z,98524.03
2022-11-24T07:15:29.950Z,98540.19
2022-11-24T07:21:31.911Z,98539.91
2022-11-24T07:27:33.887Z,98552.00
2022-11-24T07:33:36.094Z,98565.25
2022-11-24T07:39:50.219Z,98569.00
2022-11-24T07:45:55.330Z,98577.56
2022-11-24T07:51:57.331Z,98582.06
2022-11-24T07:58:09.531Z,98591.91
2022-11-24T08:04:11.517Z,98601.41
2022-11-24T08:10:13.503Z,98605.66
2022-11-24T08:16:19.836Z,98608.25
2022-11-24T08:22:21.848Z,98609.97
2022-11-24T08:28:38.071Z,98623.59
2022-11-24T08:34:39.963Z,98628.81
2022-11-24T08:41:07.162Z,98635.06
2022-11-24T08:47:09.059Z,98631.66
2022-11-24T08:53:21.447Z,98639.50
2022-11-24T08:59:23.495Z,98641.31
2022-11-24T09:05:50.771Z,98639.88
2022-11-24T09:11:47.973Z,98650.72
2022-11-24T09:17:49.864Z,98661.00
2022-11-24T09:23:56.031Z,98672.69
2022-11-24T09:29:57.974Z,98666.81
2022-11-24T09:36:00.317Z,98677.72
2022-11-24T09:42:18.767Z,98681.06
2022-11-24T09:48:33.460Z,98688.88
2022-11-24T09:54:37.720Z,98695.44
2022-11-24T10:00:44.643Z,98690.41
2022-11-24T10:07:01.574Z,98700.09
2022-11-24T10:13:38.752Z,98702.16
2022-11-24T10:19:52.572Z,98705.97
2022-11-24T10:26:37.540Z,98705.00
2022-11-24T10:32:48.811Z,98705.56
2022-11-24T10:39:34.170Z,98716.38
2022-11-24T10:52:08.950Z,98714.75
2022-11-24T10:58:38.697Z,98701.03
2022-11-24T11:04:49.696Z,98711.00
2022-11-24T11:11:29.772Z,98713.44
2022-11-24T11:17:37.646Z,98721.06
2022-11-24T11:23:40.561Z,98720.94
2022-11-24T11:36:11.486Z,98733.84
2022-11-24T11:43:05.763Z,98740.09
2022-11-24T11:49:12.337Z,98741.28
2022-11-24T11:55:46.613Z,98745.25
2022-11-24T12:02:10.082Z,98746.56
2022-11-24T12:09:19.831Z,98756.53
2022-11-24T12:15:43.057Z,98753.47
2022-11-24T12:22:28.569Z,98765.63
2022-11-24T12:29:03.172Z,98766.31
2022-11-24T12:35:52.817Z,98765.94
2022-11-24T12:42:35.092Z,98770.88
2022-11-24T12:49:01.155Z,98770.53
2022-11-24T12:55:04.575Z,98767.94
2022-11-24T13:01:21.430Z,98778.72
2022-11-24T13:08:02.849Z,98780.06
2022-11-24T13:14:46.915Z,98779.28
2022-11-24T13:20:48.961Z,98796.19
2022-11-24T13:27:28.378Z,98806.34
2022-11-24T13:33:33.349Z,98814.97
2022-11-24T13:39:50.515Z,98830.69
2022-11-24T13:45:53.946Z,98825.78
2022-11-24T13:52:40.314Z,98837.50
2022-11-24T13:59:27.917Z,98842.47
2022-11-24T14:05:40.834Z,98848.22
2022-11-24T14:11:43.089Z,98852.16
2022-11-24T14:17:44.958Z,98855.84
2022-11-24T14:24:17.005Z,98854.84
2022-11-24T14:30:23.330Z,98863.06
2022-11-24T14:36:28.033Z,98874.59
2022-11-24T14:42:30.938Z,98873.59
2022-11-24T14:48:38.738Z,98887.56
2022-11-24T14:55:03.944Z,98897.22
2022-11-24T15:01:28.807Z,98905.69
2022-11-24T15:07:30.824Z,98912.19
2022-11-24T15:13:42.551Z,98910.06
2022-11-24T15:20:32.335Z,98909.16
2022-11-24T15:26:40.216Z,98923.66
2022-11-24T15:33:01.352Z,98919.41
2022-11-24T15:39:03.436Z,98915.69
2022-11-24T15:45:05.955Z,98923.66
2022-11-24T15:51:14.881Z,98935.53
2022-11-24T15:57:22.868Z,98937.94
2022-11-24T16:03:46.167Z,98939.75
2022-11-24T16:09:49.120Z,98945.25
2022-11-24T16:15:51.095Z,98955.19
2022-11-24T16:21:58.914Z,98955.44
2022-11-24T16:28:00.880Z,98959.25
2022-11-24T16:34:02.876Z,98967.69
2022-11-24T16:40:05.923Z,98964.47
2022-11-24T16:46:25.313Z,98969.50
2022-11-24T16:52:27.270Z,98970.44
2022-11-24T16:58:29.385Z,98972.75
2022-11-24T17:04:31.659Z,98974.38
2022-11-24T17:10:37.708Z,98980.84
2022-11-24T17:16:45.822Z,98988.88
2022-11-24T17:22:50.512Z,98990.53
2022-11-24T17:29:01.920Z,98996.78
2022-11-24T17:35:04.277Z,98999.88
2022-11-24T17:41:06.362Z,98997.44
2022-11-24T17:47:08.285Z,98998.41
2022-11-24T17:53:10.255Z,99006.16
2022-11-24T17:59:12.670Z,99015.63
2022-11-24T18:05:14.983Z,99009.00
2022-11-24T18:11:31.348Z,99014.81
2022-11-24T18:17:33.901Z,99015.56
2022-11-24T18:23:36.294Z,99016.03
2022-11-24T18:29:38.479Z,99025.06
2022-11-24T18:35:40.445Z,99022.34
2022-11-24T18:41:42.349Z,99029.22
2022-11-24T18:47:44.423Z,99030.66
2022-11-24T18:53:52.214Z,99039.75
2022-11-24T18:59:54.154Z,99041.03
2022-11-24T19:05:56.185Z,99046.78
2022-11-24T19:11:58.189Z,99057.16
2022-11-24T19:18:03.032Z,99045.03
2022-11-24T19:24:07.295Z,99052.16
2022-11-24T19:30:17.860Z,99059.00
2022-11-24T19:36:21.585Z,99055.66
2022-11-24T19:42:23.672Z,99062.81
2022-11-24T19:48:25.547Z,99070.09
2022-11-24T19:54:27.630Z,99062.69
2022-11-24T20:00:35.672Z,99068.66
2022-11-24T20:06:42.405Z,99077.22
2022-11-24T20:12:52.976Z,99070.63
2022-11-24T20:19:02.698Z,99069.91
2022-11-24T20:25:05.121Z,99075.91
2022-11-24T20:31:13.957Z,99072.13
2022-11-24T20:37:16.325Z,99073.88
2022-11-24T20:43:18.249Z,99081.47
2022-11-24T20:49:32.697Z,99092.88
2022-11-24T20:55:37.659Z,99082.28
2022-11-24T21:01:44.283Z,99093.41
2022-11-24T21:07:46.334Z,99098.31
2022-11-24T21:13:51.525Z,99095.34
2022-11-24T21:19:56.911Z,99098.25
2022-11-24T21:26:13.059Z,99107.06
2022-11-24T21:32:28.136Z,99110.44
2022-11-24T21:38:31.047Z,99114.94
2022-11-24T21:44:33.272Z,99117.78
2022-11-24T21:50:35.835Z,99129.75
2022-11-24T21:56:37.807Z,99128.28
2022-11-24T22:02:39.749Z,99131.69
2022-11-24T22:08:48.481Z,99131.25
2022-11-24T22:14:50.452Z,99130.13
2022-11-24T22:20:58.401Z,99125.63
2022-11-24T22:27:02.870Z,99127.13
2022-11-24T22:33:10.423Z,99125.81
2022-11-24T22:39:12.801Z,99116.53
2022-11-24T22:45:14.972Z,99114.69
2022-11-24T22:51:20.299Z,99119.66
2022-11-24T22:57:22.215Z,99109.22
2022-11-24T23:03:31.196Z,99115.16
2022-11-24T23:09:33.847Z,99113.00
2022-11-24T23:15:37.265Z,99121.63
2022-11-24T23:21:39.691Z,99133.41
2022-11-24T23:27:53.941Z,99126.41
2022-11-24T23:34:03.749Z,99132.94
2022-11-24T23:40:15.377Z,99126.63
2022-11-24T23:46:23.539Z,99117.66
2022-11-24T23:52:31.482Z,99115.97
2022-11-24T23:58:34.993Z,99116.13
